Time;durP1;ratioP1;P1;durP2;ratioP2;P2;SDS_P1;SDS_P2;PMS_P1;PMS_P2;Temp;Humidity;BMP_temperature;BMP_pressure;BME280_temperature;BME280_humidity;BME280_pressure;Samples;Min_cycle;Max_cycle;Signal;HPM_P1;HPM_P2
2023/06/16 00:01:42;;;;;;;10.02;4.88;;;;;;;;;;5136429;27;20205;-50
2023/06/16 00:04:09;;;;;;;8.73;5.82;;;;;;;;;;5137078;27;20263;-51
2023/06/16 00:06:37;;;;;;;7.03;5.38;;;;;;;;;;5136176;27;20686;-57
2023/06/16 00:09:04;;;;;;;5.93;4.63;;;;;;;;;;5136138;27;20207;-53
2023/06/16 00:11:33;;;;;;;7.53;5.18;;;;;;;;;;5136126;27;20226;-50
2023/06/16 00:14:00;;;;;;;6.57;4.40;;;;;;;;;;5118029;27;20242;-51
2023/06/16 00:16:27;;;;;;;7.45;4.78;;;;;;;;;;5135931;27;20201;-52
2023/06/16 00:18:57;;;;;;;8.15;4.50;;;;;;;;;;5136231;27;20217;-54
2023/06/16 00:21:27;;;;;;;7.57;4.53;;;;;;;;;;5136409;27;20238;-52
2023/06/16 00:23:55;;;;;;;6.38;4.32;;;;;;;;;;5135869;27;20659;-50
2023/06/16 00:26:23;;;;;;;10.13;4.45;;;;;;;;;;5117974;27;20224;-54
2023/06/16 00:28:50;;;;;;;8.18;5.18;;;;;;;;;;5136083;27;20280;-52
2023/06/16 00:31:17;;;;;;;7.53;4.55;;;;;;;;;;5117560;27;20262;-51
2023/06/16 00:33:44;;;;;;;5.95;4.57;;;;;;;;;;5117579;27;20221;-54
2023/06/16 00:36:11;;;;;;;7.05;5.10;;;;;;;;;;5117499;27;20220;-52
2023/06/16 00:38:39;;;;;;;11.90;5.28;;;;;;;;;;5117184;27;20676;-53
2023/06/16 00:41:06;;;;;;;4.97;3.88;;;;;;;;;;5117517;27;20199;-52
2023/06/16 00:43:33;;;;;;;10.00;5.15;;;;;;;;;;5135470;27;20205;-54
2023/06/16 00:46:00;;;;;;;7.18;5.30;;;;;;;;;;5135338;27;20205;-53
2023/06/16 00:48:27;;;;;;;14.65;5.95;;;;;;;;;;5135522;27;20288;-51
2023/06/16 00:50:55;;;;;;;7.35;5.50;;;;;;;;;;5100684;27;20201;-55
2023/06/16 00:53:22;;;;;;;10.65;5.95;;;;;;;;;;5135389;27;20266;-51
2023/06/16 00:55:50;;;;;;;7.75;5.97;;;;;;;;;;5135438;27;20205;-56
2023/06/16 00:58:20;;;;;;;7.07;5.40;;;;;;;;;;5116835;27;20322;-53
2023/06/16 01:00:49;;;;;;;9.00;5.75;;;;;;;;;;5135335;27;20206;-52
2023/06/16 01:03:17;;;;;;;7.97;5.78;;;;;;;;;;5134940;27;20711;-54
2023/06/16 01:05:44;;;;;;;9.25;5.70;;;;;;;;;;5135291;27;20209;-52
2023/06/16 01:08:27;;;;;;;7.13;5.00;;;;;;;;;;5135247;27;20733;-57
2023/06/16 01:11:14;;;;;;;11.27;5.03;;;;;;;;;;5134766;27;20675;-51
2023/06/16 01:13:53;;;;;;;8.25;4.90;;;;;;;;;;5116942;27;20220;-53
2023/06/16 01:16:25;;;;;;;8.57;5.43;;;;;;;;;;5135209;27;20231;-51
2023/06/16 01:18:53;;;;;;;9.50;5.60;;;;;;;;;;5135079;27;20236;-54
2023/06/16 01:21:38;;;;;;;6.55;4.35;;;;;;;;;;5117079;27;20201;-51
2023/06/16 01:24:07;;;;;;;10.95;5.05;;;;;;;;;;5116716;27;20309;-53
2023/06/16 01:26:38;;;;;;;11.55;4.95;;;;;;;;;;5099830;27;20664;-53
2023/06/16 01:29:06;;;;;;;8.77;5.72;;;;;;;;;;5116745;28;20201;-50
2023/06/16 01:31:35;;;;;;;8.05;4.63;;;;;;;;;;5134363;27;20532;-50
2023/06/16 01:34:06;;;;;;;8.43;4.35;;;;;;;;;;5134449;27;20698;-51
2023/06/16 01:36:36;;;;;;;8.45;5.47;;;;;;;;;;5116064;27;20205;-52
2023/06/16 01:39:03;;;;;;;9.70;4.85;;;;;;;;;;5116145;28;20211;-57
2023/06/16 01:41:31;;;;;;;12.35;5.38;;;;;;;;;;5099561;28;20193;-51
2023/06/16 01:44:00;;;;;;;9.30;6.30;;;;;;;;;;5134181;27;20208;-52
2023/06/16 01:46:27;;;;;;;10.07;6.78;;;;;;;;;;5116596;28;20201;-51
2023/06/16 01:48:55;;;;;;;9.80;6.30;;;;;;;;;;5134595;27;20200;-54
2023/06/16 01:51:22;;;;;;;12.48;6.45;;;;;;;;;;5116357;28;20197;-54
2023/06/16 01:53:50;;;;;;;9.60;5.80;;;;;;;;;;5134299;28;20225;-51
2023/06/16 01:56:18;;;;;;;14.90;8.98;;;;;;;;;;5134406;28;20209;-52
2023/06/16 01:58:45;;;;;;;12.63;8.80;;;;;;;;;;5115957;28;20201;-56
2023/06/16 02:01:51;;;;;;;11.05;6.80;;;;;;;;;;5099335;28;20201;-54
2023/06/16 02:04:21;;;;;;;12.18;7.55;;;;;;;;;;5014266;28;20224;-54
2023/06/16 02:06:58;;;;;;;13.30;8.02;;;;;;;;;;5014796;28;20201;-54
2023/06/16 02:09:26;;;;;;;14.80;8.75;;;;;;;;;;4998412;28;20215;-54
2023/06/16 02:11:55;;;;;;;12.20;8.07;;;;;;;;;;5031120;28;20219;-53
2023/06/16 02:14:22;;;;;;;8.88;6.78;;;;;;;;;;5014411;28;20730;-53
2023/06/16 02:16:50;;;;;;;12.50;7.28;;;;;;;;;;5030832;28;20212;-51
2023/06/16 02:19:17;;;;;;;14.15;7.30;;;;;;;;;;5047340;28;20533;-53
2023/06/16 02:21:45;;;;;;;11.30;8.52;;;;;;;;;;5030745;28;20213;-53
2023/06/16 02:24:12;;;;;;;16.15;10.15;;;;;;;;;;5034091;28;20204;-54
2023/06/16 02:26:39;;;;;;;13.60;7.20;;;;;;;;;;5034614;28;20652;-51
2023/06/16 02:29:07;;;;;;;14.57;9.60;;;;;;;;;;5017314;28;20208;-53
2023/06/16 02:31:34;;;;;;;11.55;7.50;;;;;;;;;;5033161;28;20209;-57
2023/06/16 02:34:01;;;;;;;13.52;8.35;;;;;;;;;;5032122;28;20329;-53
2023/06/16 02:36:29;;;;;;;15.07;7.07;;;;;;;;;;5049244;28;20288;-53
2023/06/16 02:38:56;;;;;;;13.63;7.60;;;;;;;;;;5029776;27;20239;-54
2023/06/16 02:41:24;;;;;;;16.65;8.35;;;;;;;;;;5117932;27;20209;-56
2023/06/16 02:43:51;;;;;;;13.60;7.97;;;;;;;;;;5118087;27;20209;-52
2023/06/16 02:46:18;;;;;;;17.90;10.02;;;;;;;;;;5117611;27;20209;-52
2023/06/16 02:48:45;;;;;;;19.38;10.60;;;;;;;;;;5136128;27;20197;-51
2023/06/16 02:51:13;;;;;;;16.00;10.35;;;;;;;;;;5117828;27;20197;-53
2023/06/16 02:53:41;;;;;;;18.88;10.45;;;;;;;;;;5117725;27;20583;-51
2023/06/16 02:56:10;;;;;;;19.02;9.95;;;;;;;;;;5069442;27;20671;-51
2023/06/16 02:58:37;;;;;;;18.88;11.15;;;;;;;;;;5119640;27;20201;-53
2023/06/16 03:01:05;;;;;;;16.23;9.90;;;;;;;;;;5137733;27;20554;-51
2023/06/16 03:03:58;;;;;;;13.52;8.80;;;;;;;;;;5119091;27;20363;-51
2023/06/16 03:06:57;;;;;;;16.13;9.43;;;;;;;;;;5091983;27;20193;-51
2023/06/16 03:09:32;;;;;;;16.98;10.05;;;;;;;;;;5119448;27;20201;-51
2023/06/16 03:12:02;;;;;;;22.27;10.48;;;;;;;;;;5119069;27;20206;-50
2023/06/16 03:14:32;;;;;;;15.63;9.95;;;;;;;;;;5118849;27;20225;-52
2023/06/16 03:17:11;;;;;;;19.17;10.27;;;;;;;;;;5119739;27;20220;-52
2023/06/16 03:19:40;;;;;;;17.67;11.23;;;;;;;;;;5119099;27;20323;-51
2023/06/16 03:22:08;;;;;;;17.90;10.48;;;;;;;;;;5118873;27;20668;-51
2023/06/16 03:24:43;;;;;;;17.33;10.35;;;;;;;;;;5118710;27;20692;-53
2023/06/16 03:27:11;;;;;;;16.20;10.18;;;;;;;;;;5118646;27;20683;-54
2023/06/16 03:29:55;;;;;;;15.90;10.18;;;;;;;;;;5118770;27;20193;-53
2023/06/16 03:32:23;;;;;;;16.13;10.23;;;;;;;;;;5113239;27;20193;-52
2023/06/16 03:34:51;;;;;;;14.15;9.82;;;;;;;;;;5115771;27;20214;-53
2023/06/16 03:37:18;;;;;;;15.77;10.88;;;;;;;;;;5129868;27;20204;-55
2023/06/16 03:39:45;;;;;;;18.17;10.93;;;;;;;;;;5134630;27;20248;-52
2023/06/16 03:42:13;;;;;;;14.20;10.52;;;;;;;;;;5081890;27;20209;-57
2023/06/16 03:44:41;;;;;;;16.48;10.68;;;;;;;;;;5117817;27;20644;-56
2023/06/16 03:47:09;;;;;;;17.30;10.98;;;;;;;;;;5112967;27;20556;-54
2023/06/16 03:49:37;;;;;;;15.80;10.90;;;;;;;;;;5115640;27;20204;-55
2023/06/16 03:52:05;;;;;;;14.10;9.90;;;;;;;;;;5115666;27;20250;-58
2023/06/16 03:54:32;;;;;;;19.85;10.40;;;;;;;;;;5116784;27;20631;-57
2023/06/16 03:56:59;;;;;;;16.70;10.45;;;;;;;;;;5117641;27;20230;-54
2023/06/16 03:59:29;;;;;;;14.82;10.23;;;;;;;;;;5117857;27;20194;-55
2023/06/16 04:01:57;;;;;;;17.48;10.43;;;;;;;;;;5130702;27;20205;-54
2023/06/16 04:04:26;;;;;;;24.25;11.57;;;;;;;;;;5105793;28;20233;-60
2023/06/16 04:06:54;;;;;;;15.30;10.98;;;;;;;;;;5143473;27;20200;-51
2023/06/16 04:09:22;;;;;;;15.98;10.60;;;;;;;;;;5131723;27;20228;-54
2023/06/16 04:11:49;;;;;;;16.38;10.68;;;;;;;;;;5117605;27;20236;-53
2023/06/16 04:14:17;;;;;;;18.50;10.80;;;;;;;;;;5116452;27;20237;-54
2023/06/16 04:16:44;;;;;;;15.20;10.55;;;;;;;;;;5117534;27;20221;-53
2023/06/16 04:19:13;;;;;;;19.17;11.07;;;;;;;;;;5116810;27;20691;-54
2023/06/16 04:21:41;;;;;;;15.93;10.43;;;;;;;;;;5117131;27;20699;-52
2023/06/16 04:24:10;;;;;;;17.90;11.02;;;;;;;;;;5116691;27;20221;-51
2023/06/16 04:26:41;;;;;;;16.45;11.20;;;;;;;;;;5117176;27;20221;-54
2023/06/16 04:29:09;;;;;;;14.65;10.55;;;;;;;;;;5116218;27;20566;-50
2023/06/16 04:31:42;;;;;;;15.60;10.40;;;;;;;;;;5116590;27;20224;-55
2023/06/16 04:34:10;;;;;;;16.00;11.15;;;;;;;;;;5116679;27;20220;-57
2023/06/16 04:36:44;;;;;;;16.60;10.98;;;;;;;;;;5115869;27;20228;-54
2023/06/16 04:39:33;;;;;;;19.90;11.38;;;;;;;;;;5113988;27;20221;-55
2023/06/16 04:42:02;;;;;;;21.27;12.48;;;;;;;;;;5115847;27;20217;-52
2023/06/16 04:44:31;;;;;;;20.98;11.73;;;;;;;;;;5115997;27;20232;-49
2023/06/16 04:46:58;;;;;;;18.10;11.05;;;;;;;;;;5092972;27;20740;-50
2023/06/16 04:49:28;;;;;;;18.83;11.43;;;;;;;;;;5116112;27;20762;-49
2023/06/16 04:51:55;;;;;;;16.40;10.80;;;;;;;;;;5131290;27;20217;-50
2023/06/16 04:54:24;;;;;;;24.10;13.55;;;;;;;;;;5113519;27;20674;-52
2023/06/16 04:56:51;;;;;;;20.25;12.77;;;;;;;;;;5132328;27;20687;-50
2023/06/16 04:59:19;;;;;;;21.40;12.43;;;;;;;;;;5112381;27;20278;-53
2023/06/16 05:01:50;;;;;;;19.08;13.38;;;;;;;;;;5112827;27;20213;-51
2023/06/16 05:04:17;;;;;;;16.30;11.52;;;;;;;;;;5113491;27;20225;-51
2023/06/16 05:06:44;;;;;;;18.75;10.75;;;;;;;;;;5130975;27;20772;-53
2023/06/16 05:09:12;;;;;;;18.55;12.23;;;;;;;;;;5126909;27;20240;-51
2023/06/16 05:11:39;;;;;;;22.65;13.00;;;;;;;;;;5133447;27;20225;-49
2023/06/16 05:14:07;;;;;;;19.35;12.10;;;;;;;;;;5115109;27;20256;-49
2023/06/16 05:16:35;;;;;;;19.08;12.23;;;;;;;;;;5115581;27;20221;-55
2023/06/16 05:19:04;;;;;;;17.92;12.35;;;;;;;;;;5134082;27;20233;-50
2023/06/16 05:21:36;;;;;;;25.08;12.38;;;;;;;;;;5116180;27;20236;-48
2023/06/16 05:24:03;;;;;;;18.02;11.80;;;;;;;;;;5134802;27;20201;-48
2023/06/16 05:26:31;;;;;;;17.77;12.23;;;;;;;;;;5116160;27;20200;-47
2023/06/16 05:28:59;;;;;;;15.00;11.45;;;;;;;;;;5116418;27;20197;-48
2023/06/16 05:31:26;;;;;;;22.00;11.65;;;;;;;;;;5134969;27;20201;-48
2023/06/16 05:33:55;;;;;;;18.13;11.55;;;;;;;;;;5134545;27;20217;-47
2023/06/16 05:36:28;;;;;;;19.55;12.70;;;;;;;;;;5116668;27;20208;-47
2023/06/16 05:38:56;;;;;;;22.15;12.55;;;;;;;;;;5116374;27;20232;-48
2023/06/16 05:41:27;;;;;;;20.25;13.25;;;;;;;;;;5116775;27;20209;-47
2023/06/16 05:43:56;;;;;;;18.65;12.57;;;;;;;;;;5116309;28;20201;-47
2023/06/16 05:46:23;;;;;;;18.80;13.05;;;;;;;;;;5116534;28;20209;-47
2023/06/16 05:48:51;;;;;;;16.25;11.77;;;;;;;;;;5116063;27;20558;-48
2023/06/16 05:51:19;;;;;;;20.75;12.80;;;;;;;;;;5134374;28;20218;-47
2023/06/16 05:53:46;;;;;;;15.85;11.43;;;;;;;;;;5134621;28;20288;-47
2023/06/16 05:56:13;;;;;;;20.33;12.20;;;;;;;;;;5116538;28;20197;-49
2023/06/16 05:58:40;;;;;;;16.60;11.35;;;;;;;;;;5119162;27;20209;-47
2023/06/16 06:01:08;;;;;;;15.98;11.48;;;;;;;;;;5138789;27;20648;-48
2023/06/16 06:03:36;;;;;;;18.65;12.43;;;;;;;;;;5120265;27;20229;-48
2023/06/16 06:06:05;;;;;;;16.30;11.30;;;;;;;;;;5120719;27;20250;-47
2023/06/16 06:08:32;;;;;;;15.57;10.70;;;;;;;;;;5120032;27;20208;-51
2023/06/16 06:11:04;;;;;;;15.18;9.85;;;;;;;;;;5120148;27;20208;-48
2023/06/16 06:13:31;;;;;;;12.50;9.30;;;;;;;;;;5120176;27;20200;-47
2023/06/16 06:16:00;;;;;;;24.33;9.63;;;;;;;;;;5138350;27;20254;-48
2023/06/16 06:18:28;;;;;;;11.60;8.68;;;;;;;;;;5120289;27;20201;-48
2023/06/16 06:20:58;;;;;;;12.35;9.35;;;;;;;;;;5120008;27;20698;-47
2023/06/16 06:23:25;;;;;;;11.48;7.75;;;;;;;;;;5119919;27;20201;-48
2023/06/16 06:25:53;;;;;;;10.00;7.95;;;;;;;;;;5120341;27;20209;-48
2023/06/16 06:28:23;;;;;;;10.82;7.90;;;;;;;;;;5120171;27;20193;-47
2023/06/16 06:30:52;;;;;;;10.38;7.32;;;;;;;;;;5119865;27;20640;-47
2023/06/16 06:33:20;;;;;;;10.45;8.00;;;;;;;;;;5138345;27;20213;-47
2023/06/16 06:35:49;;;;;;;13.05;9.10;;;;;;;;;;5119657;27;20221;-47
2023/06/16 06:38:16;;;;;;;11.70;8.40;;;;;;;;;;5119686;27;20297;-47
2023/06/16 06:40:44;;;;;;;10.27;7.47;;;;;;;;;;5103453;27;20189;-47
2023/06/16 06:43:12;;;;;;;10.95;7.50;;;;;;;;;;5119457;27;20205;-48
2023/06/16 06:45:47;;;;;;;10.93;7.65;;;;;;;;;;5119970;27;20200;-47
2023/06/16 06:48:14;;;;;;;10.00;8.07;;;;;;;;;;5137988;27;20314;-47
2023/06/16 06:50:42;;;;;;;12.70;7.55;;;;;;;;;;5119763;27;20254;-48
2023/06/16 06:53:09;;;;;;;11.35;7.93;;;;;;;;;;5137738;27;20237;-47
2023/06/16 06:55:37;;;;;;;8.65;7.00;;;;;;;;;;5137552;27;20232;-47
2023/06/16 06:58:04;;;;;;;9.30;6.93;;;;;;;;;;5137835;27;20208;-47
2023/06/16 07:00:31;;;;;;;12.20;7.65;;;;;;;;;;5137720;27;20201;-48
2023/06/16 07:02:59;;;;;;;10.95;7.65;;;;;;;;;;5137531;27;20205;-48
2023/06/16 07:05:27;;;;;;;10.82;6.90;;;;;;;;;;5137396;27;20200;-48
2023/06/16 07:07:54;;;;;;;9.52;7.00;;;;;;;;;;5137689;27;20599;-47
2023/06/16 07:10:21;;;;;;;9.80;7.35;;;;;;;;;;5136908;27;20725;-48
2023/06/16 07:12:48;;;;;;;12.25;7.32;;;;;;;;;;5137797;27;20201;-48
2023/06/16 07:15:16;;;;;;;10.10;7.28;;;;;;;;;;5137336;27;20221;-47
2023/06/16 07:17:43;;;;;;;11.73;8.00;;;;;;;;;;5137553;27;20205;-48
2023/06/16 07:20:10;;;;;;;8.85;6.82;;;;;;;;;;5137042;27;20201;-47
2023/06/16 07:22:37;;;;;;;9.82;7.60;;;;;;;;;;5137278;27;20193;-47
2023/06/16 07:25:05;;;;;;;9.38;7.68;;;;;;;;;;5137039;27;20238;-49
2023/06/16 07:27:32;;;;;;;11.02;7.32;;;;;;;;;;5137086;27;20231;-47
2023/06/16 07:30:00;;;;;;;16.95;8.38;;;;;;;;;;5137003;27;20686;-48
2023/06/16 07:32:27;;;;;;;10.50;7.43;;;;;;;;;;5136955;27;20189;-48
2023/06/16 07:34:54;;;;;;;12.25;7.55;;;;;;;;;;5136811;27;20225;-50
2023/06/16 07:37:21;;;;;;;15.32;8.25;;;;;;;;;;5136800;27;20284;-48
2023/06/16 07:39:49;;;;;;;10.63;8.13;;;;;;;;;;5137089;27;20206;-48
2023/06/16 07:42:16;;;;;;;11.18;7.80;;;;;;;;;;5137022;27;20561;-47
2023/06/16 07:44:43;;;;;;;11.13;7.10;;;;;;;;;;5136916;27;20202;-47
2023/06/16 07:47:10;;;;;;;9.18;7.38;;;;;;;;;;5137056;27;20193;-47
2023/06/16 07:49:38;;;;;;;12.50;7.90;;;;;;;;;;5136608;27;20201;-47
2023/06/16 07:52:06;;;;;;;9.20;6.80;;;;;;;;;;5136567;27;20288;-47
2023/06/16 07:54:33;;;;;;;8.32;6.72;;;;;;;;;;5136658;27;20231;-48
2023/06/16 07:57:00;;;;;;;7.57;6.43;;;;;;;;;;5136744;27;20209;-47
2023/06/16 07:59:27;;;;;;;9.23;6.88;;;;;;;;;;5136577;27;20220;-47
2023/06/16 08:01:55;;;;;;;9.57;6.97;;;;;;;;;;5136745;27;20274;-47
2023/06/16 08:04:22;;;;;;;15.45;8.63;;;;;;;;;;5083940;27;20229;-46
2023/06/16 08:06:49;;;;;;;14.13;8.82;;;;;;;;;;5136267;27;20231;-47
2023/06/16 08:09:16;;;;;;;14.02;8.45;;;;;;;;;;5136425;27;20208;-46
2023/06/16 08:11:43;;;;;;;9.57;6.88;;;;;;;;;;5136355;27;20262;-45
2023/06/16 08:14:11;;;;;;;10.60;6.93;;;;;;;;;;5136202;27;20205;-46
2023/06/16 08:16:38;;;;;;;10.00;7.18;;;;;;;;;;5135883;27;20208;-46
2023/06/16 08:19:06;;;;;;;9.45;6.82;;;;;;;;;;5083895;27;20241;-47
2023/06/16 08:21:34;;;;;;;9.48;6.20;;;;;;;;;;5134894;27;20193;-46
2023/06/16 08:24:02;;;;;;;9.88;6.25;;;;;;;;;;5136152;27;20209;-46
2023/06/16 08:26:29;;;;;;;10.35;6.07;;;;;;;;;;5135673;27;20254;-46
2023/06/16 08:28:56;;;;;;;8.40;6.15;;;;;;;;;;5136074;27;20201;-47
2023/06/16 08:31:23;;;;;;;8.13;5.45;;;;;;;;;;5135656;27;20599;-46
2023/06/16 08:33:50;;;;;;;8.45;5.65;;;;;;;;;;5135676;27;20194;-46
2023/06/16 08:36:20;;;;;;;8.40;6.13;;;;;;;;;;5135923;27;20222;-46
2023/06/16 08:38:48;;;;;;;6.47;5.40;;;;;;;;;;5135581;27;20205;-46
2023/06/16 08:41:16;;;;;;;10.65;5.78;;;;;;;;;;5135824;27;20200;-48
2023/06/16 08:43:48;;;;;;;8.80;6.28;;;;;;;;;;5117555;27;20202;-46
2023/06/16 08:46:15;;;;;;;7.32;5.18;;;;;;;;;;5135447;27;20292;-46
2023/06/16 08:48:43;;;;;;;9.68;5.78;;;;;;;;;;5135673;27;20197;-46
2023/06/16 08:51:14;;;;;;;8.15;5.80;;;;;;;;;;5135272;27;20566;-46
2023/06/16 08:53:41;;;;;;;9.27;6.13;;;;;;;;;;5128886;27;20221;-46
2023/06/16 08:56:09;;;;;;;7.53;6.10;;;;;;;;;;5098749;28;20304;-47
2023/06/16 08:58:37;;;;;;;8.80;6.00;;;;;;;;;;5097165;28;20202;-46
2023/06/16 09:01:07;;;;;;;7.95;6.13;;;;;;;;;;5096962;28;20202;-46
2023/06/16 09:03:34;;;;;;;6.63;5.47;;;;;;;;;;5114863;28;20599;-46
2023/06/16 09:06:02;;;;;;;7.85;5.88;;;;;;;;;;5114780;28;20248;-47
2023/06/16 09:08:31;;;;;;;8.73;5.72;;;;;;;;;;5114556;28;20765;-46
2023/06/16 09:11:05;;;;;;;10.35;6.65;;;;;;;;;;5114700;28;20198;-47
2023/06/16 09:13:32;;;;;;;7.18;5.78;;;;;;;;;;5096672;28;20544;-49
2023/06/16 09:15:59;;;;;;;9.48;6.57;;;;;;;;;;5114309;28;20226;-47
2023/06/16 09:18:37;;;;;;;9.82;6.35;;;;;;;;;;5114915;28;20205;-48
2023/06/16 09:21:08;;;;;;;9.75;6.03;;;;;;;;;;5114448;28;20255;-47
2023/06/16 09:23:35;;;;;;;8.25;6.13;;;;;;;;;;5114263;28;20198;-47
2023/06/16 09:26:11;;;;;;;13.07;6.60;;;;;;;;;;5114527;28;20202;-46
2023/06/16 09:28:39;;;;;;;8.10;6.45;;;;;;;;;;5114260;28;20193;-46
2023/06/16 09:31:11;;;;;;;7.53;5.90;;;;;;;;;;5114207;28;20210;-47
2023/06/16 09:33:42;;;;;;;8.55;6.03;;;;;;;;;;5114470;28;20210;-46
2023/06/16 09:36:09;;;;;;;10.27;5.65;;;;;;;;;;5114014;28;20228;-46
2023/06/16 09:38:37;;;;;;;6.68;5.68;;;;;;;;;;5114337;28;20202;-45
2023/06/16 09:41:23;;;;;;;8.15;6.38;;;;;;;;;;5114259;28;20208;-46
2023/06/16 09:43:51;;;;;;;8.27;6.30;;;;;;;;;;5114335;28;20205;-46
2023/06/16 09:46:18;;;;;;;10.23;5.70;;;;;;;;;;5114007;28;20213;-45
2023/06/16 09:48:49;;;;;;;7.60;5.75;;;;;;;;;;5114072;28;20198;-45
2023/06/16 09:51:18;;;;;;;7.75;5.63;;;;;;;;;;5113883;28;20720;-46
2023/06/16 09:53:46;;;;;;;7.00;5.65;;;;;;;;;;5114057;28;20205;-47
2023/06/16 09:56:15;;;;;;;11.32;6.07;;;;;;;;;;5113820;28;20317;-46
2023/06/16 09:58:44;;;;;;;9.50;6.03;;;;;;;;;;5113844;28;20206;-45
2023/06/16 10:01:13;;;;;;;9.73;5.55;;;;;;;;;;5113819;28;20213;-46
2023/06/16 10:03:43;;;;;;;9.60;6.18;;;;;;;;;;5114367;28;20241;-46
2023/06/16 10:06:18;;;;;;;7.95;5.95;;;;;;;;;;5113768;28;20196;-46
2023/06/16 10:08:49;;;;;;;12.60;6.45;;;;;;;;;;5114213;28;20186;-45
2023/06/16 10:11:17;;;;;;;8.52;6.47;;;;;;;;;;5113901;28;20198;-45
2023/06/16 10:13:54;;;;;;;8.32;6.38;;;;;;;;;;5113693;28;20202;-46
2023/06/16 10:16:25;;;;;;;8.18;5.80;;;;;;;;;;5096008;28;20282;-46
2023/06/16 10:18:54;;;;;;;8.70;6.38;;;;;;;;;;5113867;28;20641;-46
2023/06/16 10:21:23;;;;;;;9.13;6.28;;;;;;;;;;5096027;28;20673;-45
2023/06/16 10:23:51;;;;;;;9.02;6.55;;;;;;;;;;5095935;28;20208;-48
2023/06/16 10:26:19;;;;;;;8.25;6.07;;;;;;;;;;5095653;28;20668;-46
2023/06/16 10:28:46;;;;;;;9.82;6.38;;;;;;;;;;5113559;28;20700;-45
2023/06/16 10:31:14;;;;;;;12.13;7.07;;;;;;;;;;5095840;28;20226;-46
2023/06/16 10:33:54;;;;;;;8.07;6.28;;;;;;;;;;5095948;28;20212;-45
2023/06/16 10:36:23;;;;;;;8.23;6.20;;;;;;;;;;5113351;28;20701;-46
2023/06/16 10:39:11;;;;;;;9.50;7.07;;;;;;;;;;5113423;28;20247;-46
2023/06/16 10:41:54;;;;;;;10.23;6.55;;;;;;;;;;5113737;28;20276;-46
2023/06/16 10:44:32;;;;;;;9.77;6.60;;;;;;;;;;5115655;28;20214;-47
2023/06/16 10:47:05;;;;;;;9.13;7.03;;;;;;;;;;5117253;28;20208;-46
2023/06/16 10:49:43;;;;;;;8.95;5.70;;;;;;;;;;5117710;28;20209;-45
2023/06/16 10:52:15;;;;;;;9.23;6.63;;;;;;;;;;5117441;28;20206;-46
2023/06/16 10:54:44;;;;;;;8.45;5.97;;;;;;;;;;5117455;28;20197;-48
2023/06/16 10:57:12;;;;;;;8.85;6.90;;;;;;;;;;5117082;28;20244;-46
2023/06/16 11:00:10;;;;;;;10.30;6.47;;;;;;;;;;5117347;28;20209;-46
2023/06/16 11:02:52;;;;;;;8.77;6.32;;;;;;;;;;5117313;28;20202;-46
2023/06/16 11:05:22;;;;;;;8.98;5.90;;;;;;;;;;5117230;28;20271;-46
2023/06/16 11:08:05;;;;;;;8.25;6.38;;;;;;;;;;5116880;28;20645;-46
2023/06/16 11:10:53;;;;;;;9.15;6.32;;;;;;;;;;5120285;27;21231;-46
2023/06/16 11:13:25;;;;;;;9.85;6.40;;;;;;;;;;5116612;27;20753;-51
2023/06/16 11:15:54;;;;;;;9.85;7.13;;;;;;;;;;5072816;28;20227;-47
2023/06/16 11:18:26;;;;;;;13.63;7.18;;;;;;;;;;5072766;28;20254;-46
2023/06/16 11:20:57;;;;;;;9.73;6.30;;;;;;;;;;5072716;28;20228;-46
2023/06/16 11:23:25;;;;;;;9.43;6.90;;;;;;;;;;5072709;28;20222;-46
2023/06/16 11:26:01;;;;;;;10.43;6.97;;;;;;;;;;5072250;28;20227;-46
2023/06/16 11:28:28;;;;;;;8.95;6.90;;;;;;;;;;5072815;28;20255;-46
2023/06/16 11:30:55;;;;;;;9.93;7.47;;;;;;;;;;5072849;28;20235;-47
2023/06/16 11:33:22;;;;;;;10.63;7.65;;;;;;;;;;5072738;28;20238;-47
2023/06/16 11:35:50;;;;;;;10.23;7.03;;;;;;;;;;5056275;28;20227;-47
2023/06/16 11:38:22;;;;;;;9.68;7.88;;;;;;;;;;5072465;28;20306;-50
2023/06/16 11:40:50;;;;;;;11.77;7.30;;;;;;;;;;5072433;28;20219;-46
2023/06/16 11:43:36;;;;;;;9.35;7.32;;;;;;;;;;5072539;28;20227;-47
2023/06/16 11:46:04;;;;;;;10.57;7.90;;;;;;;;;;5082194;27;20233;-46
2023/06/16 11:48:32;;;;;;;10.90;7.57;;;;;;;;;;5135652;27;20241;-46
2023/06/16 11:50:59;;;;;;;10.90;7.18;;;;;;;;;;5114717;27;20572;-46
2023/06/16 11:53:27;;;;;;;7.38;6.28;;;;;;;;;;5134963;27;20221;-46
2023/06/16 11:55:55;;;;;;;9.00;6.60;;;;;;;;;;5133155;27;20577;-51
2023/06/16 11:58:25;;;;;;;9.38;6.80;;;;;;;;;;5132423;27;20217;-49
2023/06/16 12:00:56;;;;;;;9.43;6.53;;;;;;;;;;5134800;27;20219;-58
2023/06/16 12:03:35;;;;;;;9.68;6.45;;;;;;;;;;5116823;27;20233;-50
2023/06/16 12:06:08;;;;;;;10.20;6.90;;;;;;;;;;5118398;27;20217;-50
2023/06/16 12:08:55;;;;;;;8.88;6.88;;;;;;;;;;5116890;27;20561;-53
2023/06/16 12:11:28;;;;;;;8.63;6.45;;;;;;;;;;5127113;27;20217;-50
2023/06/16 12:13:56;;;;;;;7.65;5.60;;;;;;;;;;5131758;27;20304;-51
2023/06/16 12:16:25;;;;;;;12.80;6.25;;;;;;;;;;5134347;27;20681;-50
2023/06/16 12:18:53;;;;;;;7.78;5.75;;;;;;;;;;5134579;27;20540;-49
2023/06/16 12:21:22;;;;;;;8.50;6.50;;;;;;;;;;5134511;27;20225;-52
2023/06/16 12:23:54;;;;;;;8.15;5.88;;;;;;;;;;5131673;27;20209;-53
2023/06/16 12:26:29;;;;;;;9.38;6.57;;;;;;;;;;5133355;27;20240;-51
2023/06/16 12:28:57;;;;;;;9.05;6.63;;;;;;;;;;5134891;27;20217;-56
2023/06/16 12:31:28;;;;;;;9.23;6.45;;;;;;;;;;5131846;27;20216;-52
2023/06/16 12:33:57;;;;;;;8.25;5.70;;;;;;;;;;5134634;27;20304;-49
2023/06/16 12:36:24;;;;;;;9.30;6.75;;;;;;;;;;5131467;27;20695;-49
2023/06/16 12:38:54;;;;;;;8.18;6.30;;;;;;;;;;5134233;27;20213;-49
2023/06/16 12:41:21;;;;;;;9.80;6.30;;;;;;;;;;5133600;27;20213;-50
2023/06/16 12:43:51;;;;;;;10.40;6.57;;;;;;;;;;5134199;27;20692;-48
2023/06/16 12:46:19;;;;;;;8.20;5.75;;;;;;;;;;5130373;27;20228;-51
2023/06/16 12:48:46;;;;;;;10.20;6.32;;;;;;;;;;5134251;27;20243;-50
2023/06/16 12:51:17;;;;;;;7.50;5.57;;;;;;;;;;5134425;27;20699;-53
2023/06/16 12:53:45;;;;;;;7.40;5.72;;;;;;;;;;5134500;27;20228;-49
2023/06/16 12:56:14;;;;;;;8.63;6.47;;;;;;;;;;5134093;27;20233;-51
2023/06/16 12:58:42;;;;;;;7.97;6.35;;;;;;;;;;5131373;27;20220;-50
2023/06/16 13:01:10;;;;;;;8.85;6.30;;;;;;;;;;5132548;27;20213;-54
2023/06/16 13:03:41;;;;;;;9.82;6.18;;;;;;;;;;5132294;27;20225;-52
2023/06/16 13:06:09;;;;;;;8.98;6.38;;;;;;;;;;5133322;27;20691;-51
2023/06/16 13:08:36;;;;;;;7.22;5.68;;;;;;;;;;5133191;27;20840;-52
2023/06/16 13:11:03;;;;;;;8.80;5.82;;;;;;;;;;5133129;27;20624;-54
2023/06/16 13:13:30;;;;;;;7.53;5.55;;;;;;;;;;5114739;27;20229;-58
2023/06/16 13:15:57;;;;;;;6.63;4.78;;;;;;;;;;5133798;27;20248;-53
2023/06/16 13:18:25;;;;;;;6.40;5.03;;;;;;;;;;5132853;27;20225;-53
2023/06/16 13:20:53;;;;;;;6.63;4.45;;;;;;;;;;5133374;27;20228;-51
2023/06/16 13:23:21;;;;;;;5.57;4.00;;;;;;;;;;5132422;27;20553;-54
2023/06/16 13:25:49;;;;;;;3.90;3.22;;;;;;;;;;5129846;27;20266;-52
2023/06/16 13:28:16;;;;;;;4.10;3.53;;;;;;;;;;5132966;27;20630;-51
2023/06/16 13:30:45;;;;;;;4.93;3.70;;;;;;;;;;5132671;27;20209;-55
2023/06/16 13:33:12;;;;;;;6.25;4.00;;;;;;;;;;5133388;27;20221;-49
2023/06/16 13:35:40;;;;;;;6.32;3.90;;;;;;;;;;5132220;27;20232;-50
2023/06/16 13:38:07;;;;;;;4.75;3.83;;;;;;;;;;5130893;27;20221;-51
2023/06/16 13:40:35;;;;;;;9.88;3.70;;;;;;;;;;5131605;27;20221;-54
2023/06/16 13:43:02;;;;;;;5.60;3.67;;;;;;;;;;5132734;27;20213;-54
2023/06/16 13:45:29;;;;;;;5.25;3.70;;;;;;;;;;5132015;27;20217;-52
2023/06/16 13:47:56;;;;;;;5.50;3.85;;;;;;;;;;5133048;27;20241;-58
2023/06/16 13:50:24;;;;;;;6.78;3.80;;;;;;;;;;5132273;27;20217;-50
2023/06/16 13:52:51;;;;;;;5.60;4.50;;;;;;;;;;5133209;27;20213;-50
2023/06/16 13:55:18;;;;;;;5.93;4.47;;;;;;;;;;5131500;27;20692;-52
2023/06/16 13:57:46;;;;;;;6.90;4.85;;;;;;;;;;5133167;28;20610;-54
2023/06/16 14:00:13;;;;;;;6.63;4.68;;;;;;;;;;5132554;28;20221;-59
2023/06/16 14:02:41;;;;;;;6.20;4.57;;;;;;;;;;5114407;28;20637;-58
2023/06/16 14:05:09;;;;;;;7.05;5.38;;;;;;;;;;5132328;28;20691;-57
2023/06/16 14:07:36;;;;;;;6.32;4.68;;;;;;;;;;5130134;28;20256;-54
2023/06/16 14:10:04;;;;;;;7.10;4.95;;;;;;;;;;5131260;27;20225;-57
2023/06/16 14:12:31;;;;;;;8.57;5.97;;;;;;;;;;5132446;28;20220;-55
2023/06/16 14:14:58;;;;;;;9.65;5.78;;;;;;;;;;5132394;28;20213;-57
2023/06/16 14:17:25;;;;;;;7.32;5.63;;;;;;;;;;5125748;27;20254;-56
2023/06/16 14:19:52;;;;;;;7.60;5.70;;;;;;;;;;5127090;27;20236;-56
2023/06/16 14:22:19;;;;;;;5.65;4.18;;;;;;;;;;5116192;28;20267;-60
2023/06/16 14:24:47;;;;;;;6.45;4.93;;;;;;;;;;5125260;27;20224;-58
2023/06/16 14:27:14;;;;;;;7.22;4.50;;;;;;;;;;5136753;27;20256;-58
2023/06/16 14:29:41;;;;;;;6.53;4.80;;;;;;;;;;5136667;27;20252;-55
2023/06/16 14:32:08;;;;;;;6.35;4.45;;;;;;;;;;5137227;27;20249;-49
2023/06/16 14:34:36;;;;;;;5.85;4.35;;;;;;;;;;5137434;27;20700;-49
2023/06/16 14:37:04;;;;;;;6.18;4.75;;;;;;;;;;5137155;27;20229;-49
2023/06/16 14:39:31;;;;;;;8.57;6.28;;;;;;;;;;5136674;27;20784;-49
2023/06/16 14:41:58;;;;;;;12.52;7.55;;;;;;;;;;5137098;27;20711;-50
2023/06/16 14:44:26;;;;;;;9.75;7.18;;;;;;;;;;5137138;27;20221;-49
2023/06/16 14:46:53;;;;;;;13.35;7.75;;;;;;;;;;5137002;27;20229;-49